Time;durP1;ratioP1;P1;durP2;ratioP2;P2;SDS_P1;SDS_P2;PMS_P1;PMS_P2;Temp;Humidity;BMP_temperature;BMP_pressure;BME280_temperature;BME280_humidity;BME280_pressure;Samples;Min_cycle;Max_cycle;Signal;HPM_P1;HPM_P2
2021/06/15 00:00:17;;;;;;;13.48;7.78;;;;;;;14.37;68.56;101409.91;1504781;95;21092;-93
2021/06/15 00:02:45;;;;;;;12.15;7.42;;;;;;;14.38;68.63;101406.41;1528835;93;21648;-92
2021/06/15 00:05:14;;;;;;;15.13;8.40;;;;;;;14.40;68.60;101409.98;1530690;93;21794;-93
2021/06/15 00:07:41;;;;;;;13.38;7.87;;;;;;;14.41;68.58;101405.56;1504883;93;21630;-92
2021/06/15 00:10:12;;;;;;;10.98;7.53;;;;;;;14.43;68.62;101399.86;1529224;93;21089;-92
2021/06/15 00:12:39;;;;;;;15.13;7.75;;;;;;;14.46;68.66;101395.96;1530564;93;21125;-94
2021/06/15 00:15:09;;;;;;;15.23;7.83;;;;;;;14.50;68.65;101403.98;1504370;93;21058;-94
2021/06/15 00:17:35;;;;;;;12.78;7.42;;;;;;;14.54;68.66;101404.50;1542135;90;21813;-95
2021/06/15 00:20:11;;;;;;;17.20;7.80;;;;;;;14.51;68.62;101395.19;1545203;92;21086;-95
2021/06/15 00:22:38;;;;;;;10.05;7.50;;;;;;;14.56;68.65;101395.26;1544798;92;21179;-93
2021/06/15 00:25:06;;;;;;;12.65;7.72;;;;;;;14.56;68.64;101389.55;1545061;92;21134;-94
2021/06/15 00:27:33;;;;;;;11.73;7.47;;;;;;;14.57;68.63;101392.68;1545026;92;21151;-94
2021/06/15 00:30:00;;;;;;;11.20;7.42;;;;;;;14.56;68.66;101388.23;1545190;92;21873;-93
2021/06/15 00:32:27;;;;;;;14.50;7.83;;;;;;;14.58;68.70;101382.55;1545030;92;21671;-94
2021/06/15 00:38:26;;;;;;;11.53;7.75;;;;;;;14.64;68.72;101380.45;1545111;92;21076;-94
2021/06/15 00:40:55;;;;;;;11.18;7.65;;;;;;;14.66;68.80;101380.05;1545002;92;21607;-94
2021/06/15 00:43:21;;;;;;;13.18;7.67;;;;;;;14.68;68.80;101377.43;1544748;91;21958;-94
2021/06/15 00:45:48;;;;;;;10.80;7.22;;;;;;;14.68;68.74;101378.31;1545031;92;21086;-94
2021/06/15 00:56:14;;;;;;;13.32;8.38;;;;;;;14.69;68.92;101369.48;1545188;91;21135;-94
2021/06/15 00:58:41;;;;;;;12.47;8.53;;;;;;;14.69;69.07;101373.45;1545121;92;21801;-93
2021/06/15 01:01:08;;;;;;;12.05;8.18;;;;;;;14.69;69.11;101376.55;1545287;92;21122;-93
2021/06/15 01:03:34;;;;;;;13.65;8.50;;;;;;;14.70;69.14;101379.23;1544970;92;21098;-93
2021/06/15 01:06:05;;;;;;;15.13;8.05;;;;;;;14.70;69.23;101374.38;1525563;92;21126;-93
2021/06/15 01:08:42;;;;;;;13.08;8.48;;;;;;;14.72;69.29;101373.52;1544811;92;21153;-93
2021/06/15 01:11:30;;;;;;;12.33;8.63;;;;;;;14.75;69.34;101371.34;1564512;91;21800;-93
2021/06/15 01:14:17;;;;;;;12.10;8.48;;;;;;;14.76;69.43;101364.75;1544543;92;21569;-93
2021/06/15 01:16:55;;;;;;;13.30;7.97;;;;;;;14.83;69.46;101364.86;1544720;91;21150;-94
2021/06/15 01:19:58;;;;;;;13.20;8.48;;;;;;;14.84;69.46;101360.91;1544946;91;21083;-94
2021/06/15 01:22:39;;;;;;;12.53;8.95;;;;;;;14.87;69.51;101358.33;1537823;92;21573;-92
2021/06/15 01:29:24;;;;;;;13.58;8.78;;;;;;;14.95;69.56;101359.34;1544732;92;21129;-93
2021/06/15 01:31:53;;;;;;;16.45;9.40;;;;;;;15.01;69.57;101362.52;1545062;92;21640;-92
2021/06/15 01:34:24;;;;;;;18.40;8.98;;;;;;;15.04;69.54;101363.02;1572059;91;21553;-91
2021/06/15 01:37:16;;;;;;;11.68;9.25;;;;;;;15.05;69.56;101355.07;1571977;91;21226;-91
2021/06/15 01:39:50;;;;;;;14.07;8.73;;;;;;;15.09;69.57;101354.69;1572152;91;21798;-91
2021/06/15 01:42:24;;;;;;;;;;;;;;;15.13;69.57;101357.88;1574379;91;21136;-91
2021/06/15 01:44:54;;;;;;;16.00;8.65;;;;;;;15.15;69.65;101355.70;1572192;91;20266;-91
2021/06/15 01:47:22;;;;;;;16.37;9.08;;;;;;;15.16;69.57;101345.56;1571868;91;21098;-91
2021/06/15 01:49:52;;;;;;;17.25;9.25;;;;;;;15.21;69.61;101346.06;1571950;91;21095;-91
2021/06/15 01:52:22;;;;;;;14.53;8.63;;;;;;;15.25;69.61;101347.44;1572284;91;21789;-92
2021/06/15 01:54:49;;;;;;;11.35;8.50;;;;;;;15.29;69.60;101345.28;1572039;91;21966;-91
2021/06/15 01:57:19;;;;;;;15.10;9.08;;;;;;;15.32;69.53;101345.34;1571829;91;33016;-92
2021/06/15 01:59:47;;;;;;;14.60;9.43;;;;;;;15.32;69.53;101344.46;1572078;91;21720;-92
2021/06/15 02:02:14;;;;;;;15.38;8.35;;;;;;;15.33;69.53;101347.55;1572291;91;21075;-91
2021/06/15 02:04:42;;;;;;;11.45;8.58;;;;;;;15.33;69.52;101344.49;1572303;91;22467;-91
2021/06/15 02:07:25;;;;;;;14.47;8.55;;;;;;;15.33;69.53;101345.81;1552273;91;21106;-91
2021/06/15 02:10:11;;;;;;;14.98;8.63;;;;;;;15.35;69.58;101346.73;1572292;91;21131;-91
2021/06/15 02:12:40;;;;;;;13.60;8.43;;;;;;;15.36;69.59;101344.52;1572124;91;21055;-92
2021/06/15 02:15:10;;;;;;;9.53;7.92;;;;;;;15.39;69.63;101334.81;1572523;91;21106;-91
2021/06/15 02:17:44;;;;;;;16.95;8.38;;;;;;;15.42;69.65;101332.22;1571808;90;22498;-91
2021/06/15 02:20:15;;;;;;;11.25;7.97;;;;;;;15.46;69.72;101323.42;1572369;91;21691;-92
2021/06/15 02:22:45;;;;;;;15.43;8.73;;;;;;;15.51;69.69;101328.37;1572252;91;21183;-92
2021/06/15 02:25:31;;;;;;;15.85;8.93;;;;;;;15.56;69.67;101328.02;1572623;91;21157;-92
2021/06/15 02:28:07;;;;;;;15.40;9.55;;;;;;;15.59;69.67;101325.37;1572324;91;21147;-91
2021/06/15 02:30:34;;;;;;;12.90;9.03;;;;;;;15.61;69.62;101322.30;1572098;91;21873;-90
2021/06/15 02:33:34;;;;;;;15.63;9.28;;;;;;;15.65;69.61;101319.27;1572270;91;21086;-91
2021/06/15 02:36:13;;;;;;;14.15;8.75;;;;;;;15.67;69.62;101321.08;1571832;91;21166;-92
2021/06/15 02:38:51;;;;;;;10.88;8.38;;;;;;;15.70;69.59;101319.78;1572127;91;21522;-90
2021/06/15 02:41:25;;;;;;;12.90;8.78;;;;;;;15.72;69.56;101323.34;1572070;91;21170;-90
2021/06/15 02:43:57;;;;;;;13.45;8.65;;;;;;;15.74;69.59;101326.94;1571900;91;22647;-90
2021/06/15 02:46:21;;;;;;;13.22;8.95;;;;;;;15.80;69.49;101330.10;1571652;91;21167;-89
2021/06/15 02:48:54;;;;;;;10.60;7.67;;;;;;;15.85;69.50;101323.55;1572213;91;21288;-89
2021/06/15 02:51:21;;;;;;;13.75;8.43;;;;;;;15.90;69.40;101328.48;1572003;91;21190;-90
2021/06/15 02:54:21;;;;;;;14.60;7.80;;;;;;;15.94;69.39;101328.97;1572166;91;21079;-90
2021/06/15 02:56:50;;;;;;;19.65;8.00;;;;;;;15.97;69.35;101325.00;1572089;91;22481;-91
2021/06/15 02:59:47;;;;;;;14.00;8.68;;;;;;;16.06;69.37;101318.48;1572004;91;21102;-91
2021/06/15 03:02:15;;;;;;;11.15;7.75;;;;;;;16.12;69.25;101326.53;1572155;91;21141;-92
2021/06/15 03:04:46;;;;;;;13.78;8.15;;;;;;;16.17;69.20;101324.36;1552204;91;21223;-91
2021/06/15 03:07:17;;;;;;;11.70;7.67;;;;;;;16.23;69.15;101329.29;1571989;91;21164;-92
2021/06/15 03:09:47;;;;;;;11.97;8.33;;;;;;;16.27;69.12;101326.23;1572236;91;21798;-92
2021/06/15 03:12:25;;;;;;;15.83;7.97;;;;;;;16.31;69.12;101328.04;1571231;91;21106;-93
2021/06/15 03:15:05;;;;;;;13.03;8.35;;;;;;;16.37;69.05;101328.13;1572405;91;21099;-93
2021/06/15 03:17:40;;;;;;;10.90;8.30;;;;;;;16.42;68.96;101322.84;1563479;90;21636;-92
2021/06/15 03:20:13;;;;;;;10.70;7.92;;;;;;;16.45;68.91;101330.41;1555536;92;21098;-91
2021/06/15 03:22:59;;;;;;;13.68;7.55;;;;;;;16.50;68.83;101330.03;1555002;92;21892;-92
2021/06/15 03:25:52;;;;;;;13.32;8.48;;;;;;;16.57;68.78;101326.97;1554415;92;21190;-92
2021/06/15 03:28:25;;;;;;;12.35;7.85;;;;;;;16.66;68.69;101332.83;1528771;93;21161;-92
2021/06/15 03:30:52;;;;;;;12.25;8.10;;;;;;;16.77;68.66;101338.25;1528701;93;21398;-91
2021/06/15 03:33:19;;;;;;;16.32;7.97;;;;;;;16.88;68.59;101332.63;1528788;93;21154;-91
2021/06/15 03:35:49;;;;;;;12.25;7.25;;;;;;;17.00;68.55;101327.83;1528026;93;21866;-91
2021/06/15 03:38:16;;;;;;;13.95;8.18;;;;;;;17.12;68.46;101330.59;1528715;93;21154;-91
2021/06/15 03:40:47;;;;;;;9.63;7.92;;;;;;;17.23;68.27;101336.88;1528598;93;21636;-91
2021/06/15 03:44:01;;;;;;;12.03;7.25;;;;;;;17.34;68.14;101340.05;1528935;93;21134;-92
2021/06/15 03:46:28;;;;;;;10.43;7.42;;;;;;;17.47;67.97;101336.58;1472838;96;21641;-89
2021/06/15 03:48:55;;;;;;;9.45;7.37;;;;;;;17.63;67.81;101335.78;1492881;95;21849;-90
2021/06/15 03:51:28;;;;;;;10.43;7.37;;;;;;;17.78;67.66;101334.09;1501151;94;21614;-91
2021/06/15 03:54:05;;;;;;;8.73;6.75;;;;;;;17.90;67.45;101330.62;1522757;94;21118;-89
2021/06/15 03:56:25;;;;;;;12.15;6.30;;;;;;;18.04;67.24;101328.91;1521441;94;21617;-89
2021/06/15 03:58:54;;;;;;;9.58;6.47;;;;;;;18.18;67.10;101336.94;1533284;92;21258;-90
2021/06/15 04:01:23;;;;;;;10.65;6.50;;;;;;;18.36;66.92;101336.11;1551625;91;21871;-85
2021/06/15 04:03:49;;;;;;;10.93;6.35;;;;;;;18.57;66.70;101329.92;1552980;91;21077;-84
2021/06/15 04:06:18;;;;;;;12.47;6.20;;;;;;;18.77;66.35;101335.25;1552765;91;21607;-85
2021/06/15 04:08:45;;;;;;;10.78;5.95;;;;;;;18.95;66.03;101331.74;1553208;92;21293;-89
2021/06/15 04:11:12;;;;;;;11.43;5.90;;;;;;;19.04;65.73;101333.95;1553377;92;21265;-90
2021/06/15 04:13:40;;;;;;;10.05;5.90;;;;;;;19.10;65.42;101338.85;1553239;92;21948;-83
2021/06/15 04:16:07;;;;;;;14.68;7.55;;;;;;;19.17;65.22;101336.62;1553024;92;21136;-84
2021/06/15 04:18:45;;;;;;;10.03;7.42;;;;;;;19.23;65.04;101334.82;1565015;91;21134;-84
2021/06/15 04:21:13;;;;;;;11.22;6.53;;;;;;;19.36;64.99;101330.36;1567928;91;21175;-89
2021/06/15 04:23:55;;;;;;;12.25;6.40;;;;;;;19.59;64.83;101332.95;1567572;91;21122;-87
2021/06/15 04:26:31;;;;;;;11.35;6.83;;;;;;;19.77;64.47;101328.50;1538686;91;21145;-85
2021/06/15 04:29:01;;;;;;;11.18;6.58;;;;;;;19.91;64.18;101330.66;1479536;96;21202;-82
2021/06/15 04:31:28;;;;;;;12.47;6.50;;;;;;;20.02;63.89;101333.28;1479435;96;21687;-83
2021/06/15 04:33:55;;;;;;;9.75;6.10;;;;;;;20.07;63.60;101328.81;1481339;96;21174;-83
2021/06/15 04:36:22;;;;;;;10.68;6.42;;;;;;;20.13;63.51;101330.56;1481823;96;21133;-84
2021/06/15 04:39:04;;;;;;;8.43;6.28;;;;;;;20.18;63.42;101328.31;1482028;96;22404;-83
2021/06/15 04:41:38;;;;;;;10.72;7.17;;;;;;;20.29;63.35;101332.27;1481843;96;21192;-77
2021/06/15 04:44:06;;;;;;;8.28;6.28;;;;;;;20.44;63.27;101333.96;1481834;96;21770;-76
2021/06/15 04:46:47;;;;;;;10.88;6.28;;;;;;;20.59;63.04;101340.53;1481626;96;21114;-77
2021/06/15 04:49:41;;;;;;;14.03;6.35;;;;;;;20.76;62.85;101341.78;1509141;95;21263;-77
2021/06/15 04:52:07;;;;;;;7.83;6.00;;;;;;;21.00;62.43;101348.27;1508372;95;21830;-77
2021/06/15 04:54:38;;;;;;;9.50;6.10;;;;;;;21.04;62.04;101340.22;1509421;95;21102;-87
2021/06/15 04:57:14;;;;;;;7.45;6.33;;;;;;;21.02;61.76;101343.37;1509719;94;21141;-86
2021/06/15 04:59:41;;;;;;;11.30;6.45;;;;;;;20.98;61.63;101342.92;1509246;95;21180;-84
2021/06/15 05:02:11;;;;;;;16.57;6.58;;;;;;;20.93;61.51;101337.63;1510785;94;21168;-84
2021/06/15 05:04:38;;;;;;;8.35;5.75;;;;;;;20.96;61.62;101344.73;1508902;95;21792;-86
2021/06/15 05:07:07;;;;;;;13.15;6.58;;;;;;;21.04;61.43;101336.63;1532196;93;21179;-86
2021/06/15 05:09:34;;;;;;;12.73;6.70;;;;;;;21.08;61.27;101340.62;1535729;93;21242;-86
2021/06/15 05:12:01;;;;;;;9.30;5.80;;;;;;;21.14;61.21;101339.22;1535326;93;21166;-86
2021/06/15 05:14:32;;;;;;;8.10;5.70;;;;;;;21.23;61.14;101344.04;1535544;93;21162;-86
2021/06/15 05:16:59;;;;;;;12.35;5.97;;;;;;;21.31;60.89;101342.19;1535883;91;21856;-85
2021/06/15 05:19:25;;;;;;;10.90;6.08;;;;;;;21.33;60.77;101347.95;1524866;93;21130;-86
2021/06/15 05:22:22;;;;;;;8.50;5.03;;;;;;;21.45;60.89;101349.65;1505095;95;21803;-86
2021/06/15 05:24:53;;;;;;;8.43;4.85;;;;;;;21.62;60.69;101349.92;1524751;92;21720;-86
2021/06/15 05:27:30;;;;;;;10.95;5.05;;;;;;;21.88;60.38;101349.62;1527476;93;21159;-86
2021/06/15 05:29:56;;;;;;;11.85;5.20;;;;;;;22.10;59.94;101341.73;1526881;92;21866;-86
2021/06/15 05:32:23;;;;;;;14.93;5.08;;;;;;;22.39;59.35;101344.95;1527239;92;21118;-85
2021/06/15 05:34:50;;;;;;;9.53;4.65;;;;;;;22.69;58.95;101352.98;1527301;93;21671;-86
2021/06/15 05:37:18;;;;;;;9.78;4.97;;;;;;;22.97;58.48;101350.73;1527550;93;21134;-86
2021/06/15 05:39:45;;;;;;;10.88;4.65;;;;;;;23.20;57.74;101355.77;1527469;93;21601;-86
2021/06/15 05:42:12;;;;;;;14.58;5.60;;;;;;;23.38;57.21;101352.31;1528031;93;21898;-85
2021/06/15 05:44:42;;;;;;;17.57;5.58;;;;;;;23.58;56.81;101355.97;1535479;92;21688;-86
2021/06/15 05:47:09;;;;;;;10.68;4.92;;;;;;;23.74;56.46;101349.35;1552636;92;21127;-84
2021/06/15 05:49:36;;;;;;;8.83;4.95;;;;;;;23.93;55.82;101353.05;1552732;91;21188;-85
2021/06/15 05:52:06;;;;;;;9.00;4.80;;;;;;;24.05;55.10;101354.14;1552862;91;21124;-85
2021/06/15 05:54:33;;;;;;;11.25;4.62;;;;;;;24.33;54.45;101350.86;1552401;90;21908;-86
2021/06/15 05:57:00;;;;;;;11.93;5.22;;;;;;;24.33;54.45;101350.86;1552782;91;21223;-86
2021/06/15 05:59:27;;;;;;;18.77;5.17;;;;;;;24.52;54.14;101348.66;1552811;91;21689;-86
2021/06/15 06:01:54;;;;;;;53.33;7.12;;;;;;;24.71;53.71;101350.45;1552417;92;21168;-86
2021/06/15 06:04:32;;;;;;;19.25;5.47;;;;;;;24.87;53.68;101359.02;1552964;91;21182;-86
2021/06/15 06:09:39;;;;;;;13.55;5.45;;;;;;;25.18;52.63;101351.05;1552925;91;21111;-85
2021/06/15 06:12:07;;;;;;;6.67;5.55;;;;;;;25.28;52.19;101357.98;1552446;92;21481;-85
2021/06/15 06:14:34;;;;;;;9.10;5.60;;;;;;;25.34;51.75;101359.19;1552474;92;21166;-86
2021/06/15 06:17:01;;;;;;;8.20;5.03;;;;;;;25.37;51.52;101359.55;1552429;92;21136;-85
2021/06/15 06:19:28;;;;;;;6.15;4.60;;;;;;;25.30;51.27;101357.51;1552311;92;21922;-85
2021/06/15 06:21:55;;;;;;;8.08;4.53;;;;;;;25.24;51.34;101355.42;1552800;92;21201;-86
2021/06/15 06:24:22;;;;;;;6.40;3.95;;;;;;;25.25;51.31;101354.05;1552929;92;21084;-85
2021/06/15 06:26:50;;;;;;;10.25;4.75;;;;;;;25.24;51.08;101356.30;1552854;92;21132;-85
2021/06/15 06:29:17;;;;;;;7.03;4.50;;;;;;;25.25;50.88;101351.82;1552709;92;21545;-85
2021/06/15 06:31:44;;;;;;;6.67;4.85;;;;;;;25.38;50.94;101355.48;1552717;90;22636;-86
2021/06/15 06:34:12;;;;;;;7.12;4.55;;;;;;;25.48;50.59;101352.53;1551995;92;21199;-86
2021/06/15 06:36:39;;;;;;;11.57;4.70;;;;;;;25.43;50.07;101358.03;1552797;91;21148;-86
2021/06/15 06:39:07;;;;;;;6.80;4.28;;;;;;;25.29;50.03;101362.93;1552748;92;21688;-85
2021/06/15 06:41:35;;;;;;;10.05;6.25;;;;;;;25.11;49.86;101375.90;1552999;92;21092;-86
2021/06/15 06:44:02;;;;;;;11.53;6.72;;;;;;;24.84;49.71;101378.84;1552609;92;21805;-85
2021/06/15 06:46:28;;;;;;;5.47;4.25;;;;;;;24.56;49.63;101371.41;1552741;92;21191;-86
2021/06/15 06:48:55;;;;;;;10.72;5.55;;;;;;;24.36;49.75;101365.56;1552721;92;21142;-86
2021/06/15 06:51:22;;;;;;;12.63;5.53;;;;;;;24.24;49.96;101367.61;1552874;92;21597;-86
2021/06/15 06:53:49;;;;;;;8.95;4.10;;;;;;;24.20;49.97;101366.38;1552759;92;21193;-86
2021/06/15 06:56:18;;;;;;;11.10;5.97;;;;;;;24.16;50.09;101361.99;1552680;92;22161;-85
2021/06/15 06:58:46;;;;;;;9.93;4.95;;;;;;;24.23;50.11;101355.53;1552699;92;21190;-86
2021/06/15 07:01:13;;;;;;;9.05;4.67;;;;;;;24.28;50.09;101357.67;1552635;92;21761;-85
2021/06/15 07:03:40;;;;;;;7.60;4.33;;;;;;;24.28;50.00;101368.43;1552691;92;21203;-86
2021/06/15 07:06:07;;;;;;;6.97;4.25;;;;;;;24.23;50.01;101371.23;1553043;92;21127;-85
2021/06/15 07:08:36;;;;;;;6.15;3.70;;;;;;;24.18;50.07;101374.48;1552530;92;21864;-86
2021/06/15 07:11:04;;;;;;;9.28;4.28;;;;;;;24.11;49.95;101375.52;1550280;90;21115;-85
2021/06/15 07:13:31;;;;;;;8.10;4.90;;;;;;;24.04;50.03;101378.82;1552789;92;21155;-86
2021/06/15 07:15:58;;;;;;;9.55;4.33;;;;;;;23.99;50.19;101381.17;1552706;92;21656;-85
2021/06/15 07:18:25;;;;;;;9.28;5.00;;;;;;;23.95;50.38;101382.13;1552696;91;21096;-86
2021/06/15 07:20:52;;;;;;;14.23;7.47;;;;;;;23.90;50.38;101382.70;1552752;92;21832;-86
2021/06/15 07:23:18;;;;;;;10.75;5.67;;;;;;;23.83;50.37;101379.24;1552616;90;21123;-85
2021/06/15 07:25:45;;;;;;;11.15;4.37;;;;;;;23.83;50.48;101378.77;1552844;92;21151;-86
2021/06/15 07:28:12;;;;;;;9.50;4.20;;;;;;;23.90;50.63;101375.52;1552570;92;21159;-85
2021/06/15 07:30:39;;;;;;;9.03;5.47;;;;;;;23.98;50.64;101376.70;1552729;92;21230;-85
2021/06/15 07:33:06;;;;;;;8.78;4.83;;;;;;;24.02;50.47;101373.03;1552729;92;21787;-86
2021/06/15 07:35:33;;;;;;;20.30;5.90;;;;;;;24.01;50.34;101373.49;1552688;92;21077;-85
2021/06/15 07:37:59;;;;;;;12.20;5.75;;;;;;;24.02;50.42;101377.94;1552703;92;21716;-85
2021/06/15 07:40:26;;;;;;;9.28;6.08;;;;;;;24.04;50.29;101388.23;1552746;92;21197;-85
2021/06/15 07:42:55;;;;;;;8.50;4.47;;;;;;;24.06;50.23;101387.73;1552946;92;21139;-86
2021/06/15 07:45:23;;;;;;;5.67;4.55;;;;;;;24.11;50.25;101389.44;1552770;92;21910;-86
2021/06/15 07:47:52;;;;;;;13.85;5.58;;;;;;;24.17;50.41;101391.98;1552754;90;21155;-86
2021/06/15 07:50:19;;;;;;;13.00;5.22;;;;;;;24.19;50.28;101392.37;1552844;92;21076;-85
2021/06/15 07:52:46;;;;;;;11.68;5.80;;;;;;;24.11;50.05;101398.85;1552716;92;21673;-85
2021/06/15 07:55:14;;;;;;;11.12;5.95;;;;;;;23.88;50.10;101403.36;1552694;92;21199;-86
2021/06/15 07:57:41;;;;;;;8.40;5.17;;;;;;;23.61;50.37;101410.98;1552655;92;22414;-85
2021/06/15 08:00:10;;;;;;;12.98;7.60;;;;;;;23.16;50.74;101399.71;1552653;92;21104;-85
2021/06/15 08:02:37;;;;;;;11.85;6.12;;;;;;;23.16;50.74;101399.71;1552702;91;21084;-86
2021/06/15 08:05:04;;;;;;;7.25;5.70;;;;;;;22.89;51.53;101401.00;1552540;90;21147;-85
2021/06/15 08:07:32;;;;;;;9.53;6.12;;;;;;;22.89;51.53;101401.00;1552970;90;21179;-86
2021/06/15 08:09:59;;;;;;;9.58;5.45;;;;;;;22.65;51.94;101397.77;1552440;92;21904;-85
2021/06/15 08:12:26;;;;;;;12.43;7.70;;;;;;;22.43;52.44;101400.33;1552679;92;21060;-85
2021/06/15 08:14:54;;;;;;;11.80;6.45;;;;;;;22.28;52.84;101402.33;1552613;92;21676;-86
2021/06/15 08:17:21;;;;;;;8.93;5.50;;;;;;;22.17;53.17;101404.23;1552409;90;21160;-85
2021/06/15 08:19:48;;;;;;;9.28;7.00;;;;;;;22.09;53.42;101415.48;1552708;91;21633;-85
2021/06/15 08:22:16;;;;;;;12.30;6.67;;;;;;;22.11;53.75;101423.05;1552684;92;21518;-85
2021/06/15 08:24:43;;;;;;;12.78;6.00;;;;;;;22.15;53.87;101416.77;1552986;92;21119;-85
2021/06/15 08:27:10;;;;;;;12.43;7.20;;;;;;;22.16;53.84;101418.98;1552925;91;21095;-85
2021/06/15 08:29:37;;;;;;;11.12;6.12;;;;;;;22.12;54.01;101419.47;1553124;92;21183;-85
2021/06/15 08:32:04;;;;;;;10.20;5.72;;;;;;;22.23;54.44;101426.05;1552860;92;21124;-86
2021/06/15 08:34:31;;;;;;;9.20;6.17;;;;;;;22.30;54.51;101431.81;1552941;92;21783;-86
2021/06/15 08:37:00;;;;;;;9.70;6.20;;;;;;;22.38;54.58;101437.08;1552748;91;21187;-86
2021/06/15 08:39:29;;;;;;;12.45;6.00;;;;;;;22.51;54.85;101446.27;1552692;92;21179;-86
2021/06/15 08:41:56;;;;;;;13.60;5.85;;;;;;;22.68;54.95;101450.52;1552787;92;21258;-86
2021/06/15 08:44:22;;;;;;;12.78;6.50;;;;;;;22.85;54.88;101454.30;1553002;92;21136;-86
2021/06/15 08:46:51;;;;;;;18.02;7.40;;;;;;;22.86;54.67;101445.33;1551914;92;21136;-87
2021/06/15 08:49:18;;;;;;;11.10;6.92;;;;;;;22.89;54.67;101440.80;1552819;92;21160;-87
2021/06/15 08:51:45;;;;;;;8.95;6.50;;;;;;;22.94;54.93;101442.09;1552849;91;21135;-86
2021/06/15 08:54:24;;;;;;;17.73;6.45;;;;;;;23.20;54.85;101447.09;1552717;92;21691;-86
2021/06/15 08:56:43;;;;;;;10.23;5.67;;;;;;;23.20;54.85;101447.09;1549990;92;21187;-86
2021/06/15 08:59:21;;;;;;;13.43;5.17;;;;;;;23.37;54.60;101455.30;1552700;90;21802;-86
2021/06/15 09:01:52;;;;;;;11.08;7.35;;;;;;;23.28;54.01;101445.61;1552562;92;21144;-86
2021/06/15 09:04:19;;;;;;;14.28;5.60;;;;;;;23.44;54.07;101474.00;1552983;92;21241;-86
2021/06/15 09:06:48;;;;;;;9.78;5.00;;;;;;;23.44;54.07;101474.00;1552828;92;21107;-86
2021/06/15 09:09:17;;;;;;;8.13;5.40;;;;;;;23.21;53.39;101476.16;1551529;90;21119;-86
2021/06/15 09:12:03;;;;;;;10.35;6.28;;;;;;;23.21;53.39;101476.16;1552537;92;22037;-87
2021/06/15 09:14:54;;;;;;;10.55;6.17;;;;;;;23.02;54.07;101462.98;1552795;91;21139;-86
2021/06/15 09:17:34;;;;;;;13.25;5.85;;;;;;;22.78;54.85;101452.62;1531884;92;21164;-86
2021/06/15 09:20:28;;;;;;;14.35;8.10;;;;;;;22.54;55.74;101444.45;1552526;91;21207;-86
2021/06/15 09:23:05;;;;;;;9.13;6.25;;;;;;;22.54;55.74;101444.45;1536769;93;27112;-85
2021/06/15 09:25:32;;;;;;;10.82;6.62;;;;;;;22.76;56.13;101470.54;1536404;93;21796;-85
2021/06/15 09:28:00;;;;;;;12.15;6.85;;;;;;;22.76;56.13;101470.54;1536510;91;21201;-84
2021/06/15 09:30:29;;;;;;;9.25;6.65;;;;;;;22.74;56.07;101466.99;1536416;93;21180;-85
2021/06/15 09:33:08;;;;;;;11.40;6.95;;;;;;;22.71;56.34;101466.12;1535757;93;21731;-85
2021/06/15 09:35:35;;;;;;;12.25;7.47;;;;;;;22.73;56.41;101465.20;1536033;93;21468;-85
2021/06/15 09:38:06;;;;;;;13.45;7.12;;;;;;;22.83;56.68;101463.72;1535980;93;21810;-84
2021/06/15 09:43:24;;;;;;;13.58;6.92;;;;;;;22.90;56.39;101481.98;1838293;77;22695;-84
2021/06/15 09:45:52;;;;;;;11.53;6.03;;;;;;;22.81;56.40;101488.82;1818606;78;21124;-84
2021/06/15 09:48:29;;;;;;;10.10;6.37;;;;;;;22.74;56.30;101475.05;1819052;78;22349;-84
2021/06/15 09:51:08;;;;;;;9.80;6.10;;;;;;;22.75;56.59;101456.24;1818788;78;21061;-86
2021/06/15 09:53:44;;;;;;;7.28;5.60;;;;;;;22.88;56.36;101478.40;1819192;78;21077;-84
2021/06/15 09:56:13;;;;;;;12.03;6.55;;;;;;;22.91;56.19;101477.91;1818866;78;21073;-83
2021/06/15 09:58:55;;;;;;;9.78;5.22;;;;;;;22.84;56.26;101473.99;1818867;78;21061;-85
2021/06/15 10:01:33;;;;;;;10.65;5.47;;;;;;;22.84;56.17;101484.73;1819029;78;22276;-84
2021/06/15 10:04:18;;;;;;;14.60;8.10;;;;;;;22.92;56.51;101477.47;1818842;78;21034;-85
2021/06/15 10:06:52;;;;;;;7.78;5.62;;;;;;;23.14;56.42;101475.82;1819365;78;21038;-84
2021/06/15 10:09:31;;;;;;;7.75;5.25;;;;;;;23.36;56.16;101477.25;1819132;78;21489;-85
2021/06/15 10:12:04;;;;;;;8.55;5.25;;;;;;;23.57;55.58;101485.86;1818623;78;21022;-85
2021/06/15 10:14:31;;;;;;;9.28;5.37;;;;;;;23.46;55.66;101470.83;1818035;78;21780;-84
2021/06/15 10:16:59;;;;;;;9.43;5.47;;;;;;;23.76;55.09;101498.08;1819038;78;21066;-84
2021/06/15 10:19:25;;;;;;;8.80;5.30;;;;;;;23.48;54.59;101495.87;1819447;78;20980;-84
2021/06/15 10:21:52;;;;;;;8.48;5.45;;;;;;;23.25;54.55;101498.03;1819100;78;21034;-85
2021/06/15 10:24:25;;;;;;;6.65;4.75;;;;;;;22.89;54.65;101500.32;1819187;78;21041;-85
2021/06/15 10:26:48;;;;;;;7.53;4.78;;;;;;;22.81;55.23;101507.61;1817426;78;21805;-84
2021/06/15 10:29:15;;;;;;;10.08;5.20;;;;;;;22.68;55.12;101504.20;1819031;78;21296;-85
2021/06/15 10:31:43;;;;;;;8.80;5.22;;;;;;;22.48;55.33;101512.48;1819192;78;21093;-84
2021/06/15 10:34:10;;;;;;;11.38;4.92;;;;;;;22.32;55.68;101514.48;1819084;78;21003;-84
2021/06/15 10:36:46;;;;;;;10.88;6.25;;;;;;;22.29;55.84;101513.16;1819175;78;20975;-85
2021/06/15 10:39:35;;;;;;;8.18;5.28;;;;;;;22.30;55.84;101516.30;1818945;78;21817;-85
2021/06/15 10:42:16;;;;;;;9.05;5.30;;;;;;;22.27;55.97;101517.20;1815491;78;21050;-84
2021/06/15 10:44:44;;;;;;;8.33;5.22;;;;;;;22.41;56.20;101507.67;1777197;79;21615;-84
2021/06/15 10:47:16;;;;;;;11.33;5.75;;;;;;;22.57;55.88;101488.23;1810866;79;21024;-84
2021/06/15 10:49:59;;;;;;;7.67;4.45;;;;;;;22.77;55.68;101500.05;1810310;79;21057;-84
2021/06/15 10:52:46;;;;;;;7.45;4.83;;;;;;;22.84;55.55;101507.11;1810283;79;21805;-85
2021/06/15 10:55:50;;;;;;;13.32;6.53;;;;;;;23.06;55.47;101520.25;1796937;78;21007;-83
2021/06/15 10:58:39;;;;;;;11.22;5.00;;;;;;;23.27;55.04;101522.63;1726738;82;21092;-85
2021/06/15 11:01:31;;;;;;;11.20;4.95;;;;;;;23.26;54.77;101518.63;1806790;79;21039;-84
2021/06/15 11:04:06;;;;;;;13.20;6.08;;;;;;;23.27;54.46;101526.66;1810282;79;21058;-85
2021/06/15 11:06:37;;;;;;;15.43;4.83;;;;;;;22.99;54.17;101522.55;1810494;79;21763;-85
2021/06/15 11:09:11;;;;;;;8.63;3.52;;;;;;;22.69;54.25;101528.77;1810610;79;21155;-85
2021/06/15 11:11:38;;;;;;;13.05;3.52;;;;;;;22.47;54.24;101534.87;1810608;79;21022;-85
2021/06/15 11:14:21;;;;;;;11.80;5.58;;;;;;;22.26;53.89;101530.62;1810499;79;21074;-85
2021/06/15 11:16:49;;;;;;;10.18;3.80;;;;;;;21.97;54.31;101527.77;1810556;79;21121;-85
2021/06/15 11:19:31;;;;;;;12.13;3.47;;;;;;;22.01;54.46;101533.52;1810370;79;21203;-85
2021/06/15 11:22:10;;;;;;;9.70;2.98;;;;;;;22.08;54.19;101523.64;1808805;79;21003;-85
2021/06/15 11:24:50;;;;;;;8.13;3.00;;;;;;;22.28;54.41;101528.37;1810475;79;21082;-84
2021/06/15 11:27:28;;;;;;;6.58;3.33;;;;;;;22.24;53.97;101508.27;1810447;79;21579;-85
2021/06/15 11:30:14;;;;;;;8.70;3.22;;;;;;;22.47;53.59;101529.51;1811001;79;21022;-85
2021/06/15 11:33:04;;;;;;;6.10;3.00;;;;;;;22.30;53.65;101533.27;1810229;79;21766;-85
2021/06/15 11:35:40;;;;;;;6.25;3.08;;;;;;;21.92;53.54;101493.41;1810233;79;21011;-85
2021/06/15 11:38:14;;;;;;;8.58;3.15;;;;;;;21.89;53.76;101531.86;1810365;79;21509;-85
2021/06/15 11:40:42;;;;;;;;;;;;;;;21.80;53.98;101517.20;1813177;79;21560;-85
2021/06/15 11:43:16;;;;;;;8.40;4.47;;;;;;;21.83;53.79;101527.91;1776774;79;20209;-85
2021/06/15 11:45:48;;;;;;;6.42;3.52;;;;;;;21.94;53.94;101529.13;1810366;79;21816;-85
2021/06/15 11:48:31;;;;;;;7.22;3.33;;;;;;;22.06;53.53;101529.48;1810107;79;21015;-85
2021/06/15 11:51:01;;;;;;;9.55;3.35;;;;;;;22.03;53.34;101528.16;1810697;79;21090;-85
2021/06/15 11:53:30;;;;;;;9.53;4.08;;;;;;;21.89;53.34;101526.96;1810342;79;21027;-85
2021/06/15 11:56:02;;;;;;;12.30;3.40;;;;;;;21.88;53.36;101526.51;1810377;79;21058;-85
2021/06/15 11:58:32;;;;;;;5.45;2.92;;;;;;;22.01;53.55;101539.34;1810349;79;22179;-85
2021/06/15 12:01:10;;;;;;;10.00;2.65;;;;;;;22.27;53.25;101511.83;1810652;79;21031;-84